createdAt,value
2023-03-21T00:01:56.672Z,6.53
2023-03-21T00:04:25.484Z,5.90
2023-03-21T00:06:52.641Z,6.23
2023-03-21T00:09:19.929Z,6.25
2023-03-21T00:11:46.786Z,5.95
2023-03-21T00:14:15.959Z,6.00
2023-03-21T00:16:45.943Z,6.25
2023-03-21T00:39:11.885Z,6.43
2023-03-21T00:41:42.907Z,7.00
2023-03-21T00:44:13.810Z,7.28
2023-03-21T00:46:47.308Z,6.57
2023-03-21T00:49:21.534Z,6.82
2023-03-21T00:51:51.196Z,6.73
2023-03-21T00:54:18.231Z,6.43
2023-03-21T00:56:45.102Z,6.72
2023-03-21T00:59:11.833Z,6.55
2023-03-21T01:01:38.689Z,6.75
2023-03-21T01:04:07.617Z,6.93
2023-03-21T01:06:40.310Z,6.47
2023-03-21T01:09:11.190Z,6.88
2023-03-21T01:11:37.980Z,6.78
2023-03-21T01:14:20.972Z,6.00
2023-03-21T01:16:49.855Z,6.90
2023-03-21T01:19:25.550Z,7.13
2023-03-21T01:21:56.701Z,7.10
2023-03-21T01:24:23.508Z,7.75
2023-03-21T01:26:50.181Z,6.57
2023-03-21T01:29:16.966Z,6.47
2023-03-21T01:31:43.673Z,7.88
2023-03-21T01:34:10.425Z,6.75
2023-03-21T01:36:37.218Z,7.28
2023-03-21T01:39:06.155Z,6.95
2023-03-21T01:41:42.977Z,7.20
2023-03-21T01:44:15.570Z,6.30
2023-03-21T01:47:11.620Z,6.82
2023-03-21T01:49:39.074Z,6.38
2023-03-21T01:52:13.073Z,6.50
2023-03-21T01:54:41.631Z,6.40
2023-03-21T01:57:12.524Z,7.32
2023-03-21T01:59:50.711Z,6.50
2023-03-21T02:02:29.011Z,6.95
2023-03-21T02:04:58.125Z,7.82
2023-03-21T02:07:29.212Z,7.70
2023-03-21T02:09:56.186Z,7.18
2023-03-21T02:12:23.253Z,7.00
2023-03-21T02:14:50.329Z,7.30
2023-03-21T02:17:38.782Z,6.72
2023-03-21T02:20:27.052Z,6.90
2023-03-21T02:23:18.266Z,6.97
2023-03-21T02:25:56.811Z,6.95
2023-03-21T02:28:31.732Z,6.88
2023-03-21T02:31:12.149Z,6.75
2023-03-21T02:33:57.670Z,6.87
2023-03-21T02:36:28.740Z,6.13
2023-03-21T02:38:56.770Z,6.80
2023-03-21T02:41:47.971Z,6.38
2023-03-21T02:44:25.332Z,6.80
2023-03-21T02:47:10.868Z,6.37
2023-03-21T02:49:45.356Z,6.32
2023-03-21T02:52:28.297Z,6.35
2023-03-21T02:55:00.009Z,6.22
2023-03-21T02:57:33.802Z,5.68
2023-03-21T03:00:16.631Z,5.70
2023-03-21T03:02:44.243Z,6.60
2023-03-21T03:05:21.543Z,6.13
2023-03-21T03:08:18.729Z,5.90
2023-03-21T03:10:54.515Z,5.88
2023-03-21T03:13:43.020Z,6.07
2023-03-21T03:16:13.539Z,5.72
2023-03-21T03:18:53.180Z,6.35
2023-03-21T03:21:39.964Z,5.80
2023-03-21T03:24:29.874Z,5.85
2023-03-21T03:27:05.275Z,6.40
2023-03-21T03:29:34.140Z,5.72
2023-03-21T03:32:05.485Z,5.95
2023-03-21T03:34:40.728Z,5.22
2023-03-21T03:37:10.763Z,5.53
2023-03-21T03:39:46.456Z,5.30
2023-03-21T03:42:28.389Z,5.07
2023-03-21T03:44:55.972Z,5.28
2023-03-21T03:47:50.794Z,5.10
2023-03-21T03:50:36.571Z,5.32
2023-03-21T03:53:18.965Z,5.80
2023-03-21T03:55:46.681Z,5.13
2023-03-21T03:58:22.868Z,5.10
2023-03-21T04:00:52.570Z,4.88
2023-03-21T04:03:19.509Z,5.00
2023-03-21T04:05:46.693Z,4.87
2023-03-21T04:08:14.353Z,4.50
2023-03-21T04:10:42.458Z,5.10
2023-03-21T04:13:09.258Z,4.68
2023-03-21T04:15:36.206Z,4.53
2023-03-21T04:18:03.413Z,4.60
2023-03-21T04:20:43.381Z,4.43
2023-03-21T04:23:11.252Z,4.72
2023-03-21T04:25:44.633Z,4.70
2023-03-21T04:28:17.527Z,4.72
2023-03-21T04:30:58.940Z,4.83
2023-03-21T04:33:27.922Z,4.57
2023-03-21T04:35:56.338Z,5.10
2023-03-21T04:38:23.768Z,5.65
2023-03-21T04:40:50.602Z,5.20
2023-03-21T04:43:17.322Z,5.70
2023-03-21T04:45:44.454Z,5.07
2023-03-21T04:48:11.221Z,5.03
2023-03-21T04:50:38.258Z,4.95
2023-03-21T04:53:05.306Z,5.10
2023-03-21T04:55:32.475Z,4.93
2023-03-21T04:57:59.704Z,4.85
2023-03-21T05:00:27.170Z,5.25
2023-03-21T05:02:53.854Z,5.03
2023-03-21T05:05:20.642Z,5.88
2023-03-21T05:07:47.431Z,4.93
2023-03-21T05:10:14.274Z,5.32
2023-03-21T05:12:41.396Z,7.22
2023-03-21T05:15:08.909Z,8.30
2023-03-21T05:17:35.658Z,9.48
2023-03-21T05:20:02.476Z,8.60
2023-03-21T05:22:29.325Z,7.35
2023-03-21T05:24:56.083Z,6.18
2023-03-21T05:27:35.576Z,5.28
2023-03-21T05:30:08.630Z,5.22
2023-03-21T05:32:35.354Z,5.23
2023-03-21T05:35:02.290Z,5.78
2023-03-21T05:37:29.179Z,5.63
2023-03-21T05:39:55.982Z,5.30
2023-03-21T05:42:22.875Z,5.47
2023-03-21T05:44:49.622Z,5.20
2023-03-21T05:47:19.159Z,4.88
2023-03-21T05:49:46.054Z,5.55
2023-03-21T05:52:12.932Z,5.38
2023-03-21T05:54:39.718Z,4.32
2023-03-21T05:57:06.675Z,4.43
2023-03-21T05:59:33.721Z,5.00
2023-03-21T06:02:00.766Z,4.65
2023-03-21T06:04:27.826Z,4.75
2023-03-21T06:06:54.863Z,5.20
2023-03-21T06:09:22.606Z,5.73
2023-03-21T06:11:51.350Z,5.93
2023-03-21T06:14:18.587Z,6.28
2023-03-21T06:16:45.394Z,5.53
2023-03-21T06:19:12.388Z,5.00
2023-03-21T06:21:39.192Z,4.80
2023-03-21T06:24:06.304Z,4.40
2023-03-21T06:26:32.991Z,4.72
2023-03-21T06:28:59.701Z,4.32
2023-03-21T06:31:26.760Z,4.97
2023-03-21T06:33:53.598Z,4.60
2023-03-21T06:36:20.609Z,3.67
2023-03-21T06:38:48.640Z,4.85
2023-03-21T06:41:16.879Z,5.05
2023-03-21T06:43:44.203Z,4.88
2023-03-21T06:46:11.415Z,5.10
2023-03-21T06:48:44.286Z,4.40
2023-03-21T06:51:12.785Z,4.68
2023-03-21T06:53:41.446Z,4.60
2023-03-21T06:56:11.866Z,4.20
2023-03-21T06:58:38.708Z,4.50
2023-03-21T07:01:05.988Z,4.03
2023-03-21T07:03:34.126Z,4.13
2023-03-21T07:06:07.086Z,4.43
2023-03-21T07:08:33.995Z,4.25
2023-03-21T07:11:01.966Z,4.67
2023-03-21T07:13:28.687Z,4.47
2023-03-21T07:15:55.644Z,4.05
2023-03-21T07:18:22.451Z,4.20
2023-03-21T07:20:51.111Z,4.90
2023-03-21T07:23:19.478Z,5.03
2023-03-21T07:25:48.431Z,4.72
2023-03-21T07:28:16.304Z,4.50
2023-03-21T07:30:44.129Z,4.80
2023-03-21T07:33:11.522Z,4.32
2023-03-21T07:35:38.768Z,4.83
2023-03-21T07:38:05.925Z,4.10
2023-03-21T07:40:32.808Z,4.13
2023-03-21T07:42:59.581Z,4.00
2023-03-21T07:45:27.393Z,3.47
2023-03-21T07:47:54.526Z,3.93
2023-03-21T07:50:21.629Z,3.78
2023-03-21T07:52:48.702Z,3.78
2023-03-21T07:55:17.306Z,4.45
2023-03-21T07:57:44.133Z,3.80
2023-03-21T08:00:12.709Z,3.83
2023-03-21T08:02:40.195Z,4.32
2023-03-21T08:05:07.247Z,4.25
2023-03-21T08:07:33.999Z,4.18
2023-03-21T08:10:01.297Z,5.18
2023-03-21T08:12:29.017Z,4.03
2023-03-21T08:14:55.933Z,4.72
2023-03-21T08:17:22.707Z,3.78
2023-03-21T08:19:49.506Z,4.40
2023-03-21T08:22:16.331Z,4.05
2023-03-21T08:24:43.154Z,4.30
2023-03-21T08:27:09.902Z,4.05
2023-03-21T08:29:40.516Z,4.03
2023-03-21T08:32:07.331Z,4.63
2023-03-21T08:34:34.017Z,3.97
2023-03-21T08:37:01.362Z,4.47
2023-03-21T08:39:28.505Z,4.60
2023-03-21T08:41:55.370Z,4.25
2023-03-21T08:44:22.183Z,4.70
2023-03-21T08:46:48.943Z,5.03
2023-03-21T08:49:15.658Z,4.10
2023-03-21T08:51:45.778Z,4.10
2023-03-21T08:54:22.632Z,4.20
2023-03-21T08:56:49.512Z,5.28
2023-03-21T08:59:17.562Z,4.25
2023-03-21T09:01:45.134Z,4.10
2023-03-21T09:04:18.920Z,3.95
2023-03-21T09:06:51.094Z,4.00
2023-03-21T09:09:19.842Z,4.10
2023-03-21T09:11:47.355Z,4.00
2023-03-21T09:14:14.140Z,4.20
2023-03-21T09:16:41.268Z,3.97
2023-03-21T09:19:08.708Z,4.68
2023-03-21T09:21:36.773Z,4.32
2023-03-21T09:24:06.583Z,4.10
2023-03-21T09:26:33.692Z,4.63
2023-03-21T09:29:01.061Z,4.70
2023-03-21T09:31:28.663Z,4.90
2023-03-21T09:33:58.019Z,5.72
2023-03-21T09:36:27.228Z,5.60
2023-03-21T09:38:54.785Z,4.67
2023-03-21T09:41:54.135Z,4.35
2023-03-21T09:45:01.746Z,5.35
2023-03-21T09:47:34.761Z,5.43
2023-03-21T09:50:14.433Z,5.55
2023-03-21T09:52:50.689Z,5.30
2023-03-21T09:55:23.906Z,4.65
2023-03-21T09:58:16.249Z,4.55
2023-03-21T10:00:46.505Z,4.80
2023-03-21T10:03:26.283Z,4.05
2023-03-21T10:05:58.877Z,4.20
2023-03-21T10:08:30.789Z,3.55
2023-03-21T10:11:01.736Z,3.78
2023-03-21T10:13:36.030Z,4.05
2023-03-21T10:16:30.620Z,3.97
2023-03-21T10:18:59.643Z,3.37
2023-03-21T10:21:51.734Z,4.38
2023-03-21T10:24:20.695Z,3.95
2023-03-21T10:26:48.461Z,3.30
2023-03-21T10:29:16.787Z,3.88
2023-03-21T10:31:45.248Z,4.40
2023-03-21T10:34:36.039Z,3.55
2023-03-21T10:37:04.453Z,3.10
2023-03-21T10:39:39.292Z,2.85
2023-03-21T10:42:06.750Z,3.17
2023-03-21T10:44:35.146Z,3.30
2023-03-21T10:47:06.416Z,3.78
2023-03-21T10:49:40.754Z,3.42
2023-03-21T10:52:22.495Z,3.58
2023-03-21T10:54:49.669Z,4.03
2023-03-21T10:57:22.543Z,4.03
2023-03-21T10:59:57.997Z,4.40
2023-03-21T11:02:30.396Z,5.43
2023-03-21T11:04:58.380Z,4.63
2023-03-21T11:07:30.977Z,5.22
2023-03-21T11:09:59.942Z,4.57
2023-03-21T11:12:38.560Z,4.45
2023-03-21T11:15:40.187Z,4.53
2023-03-21T11:18:22.036Z,4.63
2023-03-21T11:20:51.904Z,4.47
2023-03-21T11:23:20.718Z,5.10
2023-03-21T11:25:50.131Z,4.80
2023-03-21T11:28:22.980Z,4.80
2023-03-21T11:30:59.116Z,4.72
2023-03-21T11:33:28.822Z,4.45
2023-03-21T11:36:04.080Z,4.13
2023-03-21T11:38:38.208Z,5.05
2023-03-21T11:41:06.896Z,4.10
2023-03-21T11:43:39.710Z,4.50
2023-03-21T11:46:13.785Z,4.03
2023-03-21T11:48:45.721Z,4.30
2023-03-21T11:51:38.249Z,5.53
2023-03-21T11:54:20.280Z,4.53
2023-03-21T11:56:49.472Z,4.53
2023-03-21T11:59:16.623Z,4.40
2023-03-21T12:01:43.837Z,5.10
2023-03-21T12:05:11.211Z,4.63
2023-03-21T12:07:58.179Z,3.90
2023-03-21T12:10:37.650Z,5.43
2023-03-21T12:13:19.799Z,5.57
2023-03-21T12:16:09.264Z,5.23
2023-03-21T12:18:49.914Z,5.00
2023-03-21T12:21:31.714Z,5.05
2023-03-21T12:24:01.201Z,4.65
2023-03-21T12:26:38.868Z,4.53
2023-03-21T12:29:09.855Z,3.87
2023-03-21T12:31:44.295Z,4.05
2023-03-21T12:34:15.246Z,3.70
2023-03-21T12:36:51.433Z,3.30
2023-03-21T12:39:18.361Z,3.80
2023-03-21T12:41:54.660Z,3.57
2023-03-21T12:44:22.790Z,3.30
2023-03-21T12:47:09.462Z,2.42
2023-03-21T12:49:38.886Z,3.20
2023-03-21T12:52:13.226Z,3.13
2023-03-21T12:54:55.625Z,2.20
2023-03-21T12:57:56.437Z,2.80
2023-03-21T13:00:27.776Z,2.95
2023-03-21T13:02:59.018Z,3.15
2023-03-21T13:05:28.858Z,3.15
2023-03-21T13:08:03.750Z,2.70
2023-03-21T13:10:30.696Z,2.70
2023-03-21T13:13:34.223Z,2.60
2023-03-21T13:16:03.587Z,2.90
2023-03-21T13:18:56.594Z,3.42
2023-03-21T13:21:43.917Z,3.33
2023-03-21T13:24:33.110Z,2.90
2023-03-21T13:27:20.071Z,2.85
2023-03-21T13:30:19.126Z,3.72
2023-03-21T13:32:49.307Z,2.80
2023-03-21T13:35:18.961Z,3.10
2023-03-21T13:38:01.873Z,3.80
2023-03-21T13:40:48.861Z,4.53
2023-03-21T13:43:40.204Z,5.03
2023-03-21T13:46:15.968Z,4.28
2023-03-21T13:49:01.870Z,5.00
2023-03-21T13:51:38.575Z,4.40
2023-03-21T13:54:08.679Z,4.97
2023-03-21T13:56:47.497Z,4.53
2023-03-21T13:59:18.807Z,4.20
2023-03-21T14:01:58.810Z,4.90
2023-03-21T14:04:41.923Z,5.57
2023-03-21T14:07:26.480Z,4.30
2023-03-21T14:09:55.839Z,4.80
2023-03-21T14:12:24.559Z,4.85
2023-03-21T14:14:55.204Z,5.87
2023-03-21T14:17:26.044Z,5.50
2023-03-21T14:20:14.463Z,5.40
2023-03-21T14:22:41.715Z,6.00
2023-03-21T14:25:13.500Z,5.72
2023-03-21T14:27:43.680Z,5.67
2023-03-21T14:30:22.011Z,5.93
2023-03-21T14:32:48.838Z,5.57
2023-03-21T14:35:15.611Z,4.03
2023-03-21T14:37:44.733Z,4.82
2023-03-21T14:40:26.580Z,4.70
2023-03-21T14:42:54.419Z,4.47
2023-03-21T14:45:28.731Z,4.30
2023-03-21T14:48:07.663Z,4.20
2023-03-21T14:50:48.291Z,4.75
2023-03-21T14:53:25.390Z,5.13
2023-03-21T14:56:04.326Z,4.97
2023-03-21T14:58:38.416Z,4.82
2023-03-21T15:01:14.655Z,5.13
2023-03-21T15:03:44.675Z,4.82
2023-03-21T15:06:13.588Z,4.87
2023-03-21T15:08:40.855Z,4.82
2023-03-21T15:11:11.618Z,4.57
2023-03-21T15:13:46.190Z,4.65
2023-03-21T15:16:14.967Z,4.68
2023-03-21T15:18:43.016Z,4.83
2023-03-21T15:21:13.383Z,4.97
2023-03-21T15:23:45.242Z,4.70
2023-03-21T15:26:16.930Z,4.95
2023-03-21T15:28:46.619Z,4.55
2023-03-21T15:31:21.658Z,4.90
2023-03-21T15:33:49.248Z,5.30
2023-03-21T15:36:22.378Z,5.10
2023-03-21T15:38:49.896Z,4.65
2023-03-21T15:41:19.668Z,4.40
2023-03-21T15:43:55.031Z,3.80
2023-03-21T15:46:34.148Z,3.00
2023-03-21T15:49:31.179Z,2.70
2023-03-21T15:52:09.943Z,2.58
2023-03-21T15:54:50.229Z,2.60
2023-03-21T15:57:22.636Z,2.63
2023-03-21T15:59:49.623Z,2.38
2023-03-21T16:02:19.315Z,2.65
2023-03-21T16:05:18.059Z,2.80
2023-03-21T16:07:46.169Z,2.80
2023-03-21T16:10:39.143Z,3.07
2023-03-21T16:13:06.684Z,3.15
2023-03-21T16:15:33.461Z,3.28
2023-03-21T16:18:01.839Z,3.50
2023-03-21T16:20:50.503Z,3.33
2023-03-21T16:23:17.385Z,3.50
2023-03-21T16:25:44.399Z,3.65
2023-03-21T16:28:17.541Z,3.13
2023-03-21T16:30:44.966Z,3.55
2023-03-21T16:33:12.515Z,3.00
2023-03-21T16:35:39.826Z,3.37
2023-03-21T16:38:06.606Z,3.58
2023-03-21T16:40:39.572Z,3.58
2023-03-21T16:43:07.337Z,3.72
2023-03-21T16:45:34.196Z,3.58
2023-03-21T16:48:02.110Z,3.17
2023-03-21T16:50:29.550Z,2.90
2023-03-21T16:52:57.088Z,2.92
2023-03-21T16:55:24.701Z,3.45
2023-03-21T16:57:52.488Z,4.03
2023-03-21T17:00:26.076Z,3.60
2023-03-21T17:02:54.922Z,3.60
2023-03-21T17:05:26.218Z,3.30
2023-03-21T17:07:54.508Z,3.10
2023-03-21T17:10:24.039Z,3.25
2023-03-21T17:12:50.816Z,3.80
2023-03-21T17:15:18.057Z,3.75
2023-03-21T17:17:45.771Z,4.00
2023-03-21T17:20:28.176Z,4.00
2023-03-21T17:22:54.960Z,3.13
2023-03-21T17:25:21.885Z,3.10
2023-03-21T17:27:49.271Z,4.32
2023-03-21T17:30:31.644Z,4.20
2023-03-21T17:32:58.903Z,3.95
2023-03-21T17:35:26.650Z,4.00
2023-03-21T17:37:54.126Z,3.87
2023-03-21T17:40:23.752Z,4.15
2023-03-21T17:42:51.647Z,4.18
2023-03-21T17:45:18.689Z,3.60
2023-03-21T17:47:45.841Z,3.92
2023-03-21T17:50:19.096Z,4.30
2023-03-21T17:52:46.925Z,4.00
2023-03-21T17:55:17.834Z,4.15
2023-03-21T17:57:44.751Z,4.43
2023-03-21T18:00:16.773Z,4.15
2023-03-21T18:02:43.576Z,4.90
2023-03-21T18:05:10.762Z,4.65
2023-03-21T18:08:08.140Z,4.18
2023-03-21T18:10:26.552Z,4.57
2023-03-21T18:12:56.040Z,5.50
2023-03-21T18:15:24.573Z,5.83
2023-03-21T18:17:51.515Z,5.65
2023-03-21T18:20:21.102Z,5.50
2023-03-21T18:22:48.085Z,4.70
2023-03-21T18:25:15.937Z,4.85
2023-03-21T18:28:06.891Z,4.10
2023-03-21T18:31:00.388Z,3.88
2023-03-21T18:33:16.544Z,4.38
2023-03-21T18:35:43.562Z,5.45
2023-03-21T18:38:10.524Z,6.63
2023-03-21T18:40:37.566Z,6.90
2023-03-21T18:45:52.012Z,5.10
2023-03-21T18:48:18.784Z,4.60
2023-03-21T18:50:46.035Z,4.38
2023-03-21T18:53:12.693Z,3.87
2023-03-21T18:55:45.946Z,3.78
2023-03-21T18:58:13.505Z,4.32
2023-03-21T19:00:40.897Z,4.70
2023-03-21T19:03:19.289Z,4.60
2023-03-21T19:05:58.579Z,3.80
2023-03-21T19:08:25.799Z,4.25
2023-03-21T19:10:53.097Z,4.28
2023-03-21T19:13:19.880Z,4.40
2023-03-21T19:15:49.463Z,5.97
2023-03-21T19:21:05.590Z,5.32
2023-03-21T19:23:56.360Z,5.75
2023-03-21T19:26:19.302Z,5.25
2023-03-21T19:28:46.081Z,5.55
2023-03-21T19:31:12.797Z,5.00
2023-03-21T19:33:39.637Z,5.00
2023-03-21T19:36:18.080Z,4.53
2023-03-21T19:38:48.521Z,4.85
2023-03-21T19:41:15.541Z,5.25
2023-03-21T19:43:53.214Z,4.70
2023-03-21T19:46:24.661Z,4.32
2023-03-21T19:48:51.716Z,4.60
2023-03-21T19:51:28.366Z,4.40
2023-03-21T19:53:56.427Z,4.28
2023-03-21T19:56:26.751Z,4.07
2023-03-21T19:58:57.033Z,4.28
2023-03-21T20:01:24.800Z,5.60
2023-03-21T20:03:52.414Z,4.82
2023-03-21T20:06:19.632Z,4.38
2023-03-21T20:09:34.059Z,4.43
2023-03-21T20:11:33.943Z,4.32
2023-03-21T20:14:03.061Z,4.25
2023-03-21T20:16:35.835Z,4.75
2023-03-21T20:19:08.729Z,5.50
2023-03-21T20:21:46.571Z,5.07
2023-03-21T20:24:16.450Z,4.80
2023-03-21T20:26:45.015Z,4.53
2023-03-21T20:30:03.802Z,4.63
2023-03-21T20:31:58.934Z,4.25
2023-03-21T20:34:25.858Z,4.80
2023-03-21T20:36:53.364Z,4.47
2023-03-21T20:39:20.170Z,4.18
2023-03-21T20:41:46.884Z,4.97
2023-03-21T20:44:44.779Z,5.05
2023-03-21T20:47:00.478Z,5.17
2023-03-21T20:49:28.416Z,5.25
2023-03-21T20:54:43.570Z,4.43
2023-03-21T20:57:10.762Z,4.72
2023-03-21T20:59:37.582Z,4.33
2023-03-21T21:02:05.301Z,5.18
2023-03-21T21:04:52.791Z,5.05
2023-03-21T21:07:21.368Z,5.25
2023-03-21T21:09:48.923Z,4.32
2023-03-21T21:12:19.181Z,4.07
2023-03-21T21:14:47.828Z,4.53
2023-03-21T21:17:31.161Z,4.13
2023-03-21T21:20:02.460Z,4.20
2023-03-21T21:22:29.398Z,4.20
2023-03-21T21:24:56.281Z,4.27
2023-03-21T21:27:23.050Z,3.83
2023-03-21T21:29:50.196Z,3.90
2023-03-21T21:32:18.688Z,3.75
2023-03-21T21:34:45.635Z,4.60
2023-03-21T21:37:12.460Z,4.17
2023-03-21T21:39:40.233Z,3.67
2023-03-21T21:42:07.037Z,4.13
2023-03-21T21:44:33.823Z,3.65
2023-03-21T21:47:04.145Z,4.28
2023-03-21T21:49:31.218Z,4.23
2023-03-21T21:51:59.822Z,3.70
2023-03-21T21:54:30.070Z,4.05
2023-03-21T21:56:57.997Z,4.20
2023-03-21T21:59:24.796Z,4.07
2023-03-21T22:01:51.883Z,4.20
2023-03-21T22:04:24.741Z,4.03
2023-03-21T22:06:51.950Z,4.07
2023-03-21T22:09:18.970Z,3.95
2023-03-21T22:11:45.889Z,4.22
2023-03-21T22:14:12.875Z,3.70
2023-03-21T22:16:39.727Z,4.38
2023-03-21T22:19:06.571Z,4.10
2023-03-21T22:21:33.322Z,4.03
2023-03-21T22:24:00.018Z,4.10
2023-03-21T22:26:26.846Z,4.00
2023-03-21T22:28:53.546Z,4.15
2023-03-21T22:31:20.682Z,5.45
2023-03-21T22:33:48.671Z,6.35
2023-03-21T22:36:15.419Z,6.32
2023-03-21T22:38:43.901Z,6.40
2023-03-21T22:41:10.921Z,6.00
2023-03-21T22:43:37.911Z,6.18
2023-03-21T22:46:05.454Z,6.05
2023-03-21T22:48:32.649Z,6.47
2023-03-21T22:50:59.818Z,6.73
2023-03-21T22:53:26.606Z,6.57
2023-03-21T22:55:53.324Z,6.25
2023-03-21T22:58:20.307Z,5.85
2023-03-21T23:00:47.459Z,6.50
2023-03-21T23:03:16.640Z,6.53
2023-03-21T23:05:44.209Z,5.95
2023-03-21T23:08:11.305Z,7.13
2023-03-21T23:10:39.631Z,7.03
2023-03-21T23:13:06.660Z,6.53
2023-03-21T23:15:33.390Z,7.03
2023-03-21T23:18:00.145Z,6.70
2023-03-21T23:20:26.994Z,6.82
2023-03-21T23:22:53.768Z,5.97
2023-03-21T23:25:20.651Z,6.15
2023-03-21T23:27:47.953Z,5.70
2023-03-21T23:30:15.048Z,5.32
2023-03-21T23:32:57.458Z,6.05
2023-03-21T23:35:24.430Z,5.30
2023-03-21T23:37:52.768Z,7.05
2023-03-21T23:40:20.820Z,6.40
2023-03-21T23:42:47.551Z,6.35
2023-03-21T23:45:14.352Z,6.57
2023-03-21T23:47:41.122Z,6.90
2023-03-21T23:50:09.734Z,7.07
2023-03-21T23:52:37.459Z,7.27
2023-03-21T23:55:07.937Z,7.50
2023-03-21T23:57:34.789Z,7.28
